Terminal Aerodrome Forecast
Issued by NWS Springfield, MO

Home | Current Version | Previous Version | Text Only | Print | Product List | Glossary On
Versions: 1 2 3 4 5 6 7 8 9 10 11 12 13 14 15 16 17 18 19 20 21 22 23 24 25 26
000
FTUS43 KSGF 161100
TAFSGF
TAF
KSGF 161120Z 1612/1712 15015G20KT P6SM SCT250
     FM161400 17024G29KT P6SM SKC
     FM162000 18017G22KT P6SM SCT250
     FM170000 17010KT P6SM BKN250
     FM170800 15005KT P6SM BKN200=

USA.gov is the U.S. government's official web portal to all federal, state and local government web resources and services.